Time;durP1;ratioP1;P1;durP2;ratioP2;P2;SDS_P1;SDS_P2;PMS_P1;PMS_P2;Temp;Humidity;BMP_temperature;BMP_pressure;BME280_temperature;BME280_humidity;BME280_pressure;Samples;Min_cycle;Max_cycle;Signal;HPM_P1;HPM_P2
2021/06/05 00:00:39;;;;;;;4.80;4.50;;;19.00;95.80;;;;;;4976628;28;20681;-60
2021/06/05 00:03:07;;;;;;;3.80;3.50;;;19.00;95.80;;;;;;4979048;28;20459;-60
2021/06/05 00:05:49;;;;;;;4.77;3.93;;;18.80;96.10;;;;;;4973182;28;20448;-61
2021/06/05 00:08:18;;;;;;;4.43;3.70;;;18.80;96.50;;;;;;4972867;28;20534;-60
2021/06/05 00:10:50;;;;;;;4.27;3.97;;;18.80;96.00;;;;;;4978615;28;20482;-61
2021/06/05 00:13:21;;;;;;;4.10;3.83;;;18.80;96.20;;;;;;5009588;28;20469;-61
2021/06/05 00:15:49;;;;;;;4.77;4.30;;;19.00;96.10;;;;;;4977565;28;20452;-61
2021/06/05 00:18:16;;;;;;;3.80;3.50;;;19.00;96.40;;;;;;4970647;28;20418;-61
2021/06/05 00:20:44;;;;;;;4.43;4.03;;;18.80;96.90;;;;;;4970404;28;20454;-62
2021/06/05 00:23:14;;;;;;;4.43;4.13;;;18.60;97.10;;;;;;4977641;28;20717;-60
2021/06/05 00:25:42;;;;;;;4.27;3.97;;;18.50;97.30;;;;;;4974196;28;20423;-61
2021/06/05 00:28:09;;;;;;;4.50;4.13;;;18.50;97.30;;;;;;4967749;28;20807;-60
2021/06/05 00:30:36;;;;;;;3.40;3.20;;;18.30;97.20;;;;;;4972294;28;20448;-61
2021/06/05 00:33:05;;;;;;;5.53;3.93;;;18.50;97.30;;;;;;4974406;28;20408;-61
2021/06/05 00:35:33;;;;;;;4.33;4.00;;;18.60;97.30;;;;;;4972795;28;20452;-60
2021/06/05 00:38:01;;;;;;;4.33;3.93;;;18.70;97.10;;;;;;4970480;28;20442;-61
2021/06/05 00:40:32;;;;;;;6.93;4.50;;;18.60;96.90;;;;;;4978462;28;20782;-61
2021/06/05 00:43:00;;;;;;;4.50;4.10;;;18.50;97.40;;;;;;4978287;28;20438;-60
2021/06/05 00:45:33;;;;;;;3.90;3.60;;;18.40;98.70;;;;;;4968863;28;20509;-62
2021/06/05 00:48:00;;;;;;;4.17;3.87;;;18.40;98.30;;;;;;4977251;28;20447;-61
2021/06/05 00:50:28;;;;;;;4.80;4.40;;;18.20;99.30;;;;;;4977819;28;20539;-61
2021/06/05 00:52:56;;;;;;;3.80;3.50;;;18.10;99.90;;;;;;4975346;28;20460;-59
2021/06/05 00:55:27;;;;;;;4.20;3.90;;;18.00;99.90;;;;;;4968994;28;20487;-61
2021/06/05 00:57:54;;;;;;;4.60;3.80;;;17.90;99.90;;;;;;4978629;28;20463;-61
2021/06/05 01:00:24;;;;;;;3.13;2.90;;;17.80;99.90;;;;;;4977152;28;20788;-60
2021/06/05 01:02:51;;;;;;;3.80;3.50;;;17.60;99.90;;;;;;4978666;28;20448;-61
2021/06/05 01:05:19;;;;;;;3.70;3.40;;;17.50;99.90;;;;;;4975283;28;20796;-61
2021/06/05 01:07:47;;;;;;;3.70;3.50;;;17.40;99.90;;;;;;4982843;28;20498;-61
2021/06/05 01:10:28;;;;;;;4.13;3.83;;;17.40;99.90;;;;;;4977376;28;20722;-60
2021/06/05 01:13:17;;;;;;;3.77;3.50;;;17.30;99.90;;;;;;4978485;28;20541;-61
2021/06/05 01:15:59;;;;;;;3.87;3.57;;;17.20;99.90;;;;;;4977488;28;20426;-60
2021/06/05 01:18:47;;;;;;;4.20;3.90;;;17.00;99.90;;;;;;4977444;28;20499;-61
2021/06/05 01:21:32;;;;;;;3.93;3.50;;;16.90;99.90;;;;;;4969895;28;20846;-61
2021/06/05 01:24:08;;;;;;;3.83;3.53;;;16.70;99.90;;;;;;4974729;28;20515;-59
2021/06/05 01:26:38;;;;;;;6.50;3.60;;;16.60;99.90;;;;;;4968814;28;20486;-60
2021/06/05 01:29:20;;;;;;;4.67;3.73;;;16.40;99.90;;;;;;4974498;28;20802;-60
2021/06/05 01:31:52;;;;;;;5.30;4.80;;;16.20;99.90;;;;;;4970769;28;20431;-61
2021/06/05 01:34:21;;;;;;;3.60;3.30;;;16.20;99.90;;;;;;4980039;28;20413;-61
2021/06/05 01:36:54;;;;;;;4.80;4.17;;;16.00;99.90;;;;;;4968336;28;20800;-61
2021/06/05 01:39:29;;;;;;;4.40;4.00;;;15.90;99.90;;;;;;4973839;28;20513;-60
2021/06/05 01:42:00;;;;;;;4.50;4.10;;;15.80;99.90;;;;;;4969152;28;20496;-64
2021/06/05 01:44:30;;;;;;;5.10;4.60;;;15.70;99.90;;;;;;4980959;28;20406;-62
2021/06/05 01:46:57;;;;;;;6.00;5.00;;;15.70;99.90;;;;;;4981533;28;20445;-61
2021/06/05 01:49:24;;;;;;;6.07;5.50;;;15.60;99.90;;;;;;4975894;28;20561;-62
2021/06/05 01:52:13;;;;;;;6.30;5.20;;;15.40;99.90;;;;;;4973034;28;20251;-62
2021/06/05 01:54:47;;;;;;;7.13;4.97;;;15.40;99.90;;;;;;4962246;28;20989;-62
2021/06/05 01:57:18;;;;;;;6.20;4.77;;;15.30;99.90;;;;;;4976837;28;20228;-63
2021/06/05 01:59:46;;;;;;;5.37;4.87;;;15.30;99.90;;;;;;4974393;28;20484;-62
2021/06/05 02:02:13;;;;;;;5.40;5.00;;;15.30;99.90;;;;;;4961235;28;20807;-62
2021/06/05 02:04:40;;;;;;;5.57;5.13;;;15.30;99.90;;;;;;4967192;28;20229;-62
2021/06/05 02:07:08;;;;;;;7.15;6.45;;;15.30;99.90;;;;;;4981216;28;20212;-61
2021/06/05 02:09:35;;;;;;;6.10;5.50;;;15.30;99.90;;;;;;4979044;28;20558;-62
2021/06/05 02:12:09;;;;;;;6.05;5.38;;;15.40;99.90;;;;;;4980129;28;20502;-62
2021/06/05 02:14:42;;;;;;;5.55;5.05;;;15.50;99.90;;;;;;4980367;28;20201;-64
2021/06/05 02:17:12;;;;;;;5.53;5.05;;;15.50;99.90;;;;;;4981734;28;20283;-65
2021/06/05 02:19:42;;;;;;;6.47;5.57;;;15.40;99.90;;;;;;4980414;28;21573;-64
2021/06/05 02:22:15;;;;;;;5.80;5.30;;;15.40;99.90;;;;;;4981919;28;20539;-66
2021/06/05 02:24:48;;;;;;;6.87;6.27;;;15.30;99.90;;;;;;4977780;28;20446;-64
2021/06/05 02:27:19;;;;;;;6.55;5.38;;;15.30;99.90;;;;;;4971383;28;20517;-64
2021/06/05 02:29:47;;;;;;;6.13;5.60;;;15.30;99.90;;;;;;4979589;28;20408;-61
2021/06/05 02:32:17;;;;;;;7.13;6.47;;;15.10;99.90;;;;;;4972070;28;20493;-62
2021/06/05 02:34:46;;;;;;;5.90;5.30;;;15.10;99.90;;;;;;4973861;28;20251;-64
2021/06/05 02:37:17;;;;;;;6.97;5.67;;;15.20;99.90;;;;;;4979081;28;20267;-63
2021/06/05 02:39:44;;;;;;;5.73;5.27;;;15.10;99.90;;;;;;4970361;28;20508;-63
2021/06/05 02:42:18;;;;;;;6.75;5.60;;;15.20;99.90;;;;;;4974886;28;20535;-64
2021/06/05 02:44:50;;;;;;;7.35;6.57;;;15.10;99.90;;;;;;4972289;28;20218;-64
2021/06/05 02:47:18;;;;;;;7.72;6.35;;;15.10;99.90;;;;;;4975509;28;20209;-63
2021/06/05 02:49:47;;;;;;;5.90;5.40;;;15.00;99.90;;;;;;4971575;28;20400;-62
2021/06/05 02:52:28;;;;;;;5.60;5.13;;;15.00;99.90;;;;;;4971939;28;20216;-64
2021/06/05 02:55:02;;;;;;;6.03;5.53;;;15.00;99.90;;;;;;4965719;28;20209;-64
2021/06/05 02:57:30;;;;;;;6.82;6.22;;;15.10;99.90;;;;;;4965282;28;20497;-62
2021/06/05 03:00:39;;;;;;;7.07;6.32;;;15.10;99.90;;;;;;4972100;28;20557;-63
2021/06/05 03:03:08;;;;;;;6.87;6.27;;;15.10;99.90;;;;;;5004872;28;20207;-63
2021/06/05 03:05:36;;;;;;;8.13;7.32;;;15.20;99.90;;;;;;4976126;28;20714;-63
2021/06/05 03:08:08;;;;;;;6.68;6.07;;;15.50;99.90;;;;;;4979462;28;20205;-63
2021/06/05 03:10:36;;;;;;;6.73;6.13;;;16.00;99.90;;;;;;4979188;28;20227;-62
2021/06/05 03:13:04;;;;;;;8.93;6.70;;;16.30;99.90;;;;;;4971046;28;20461;-64
2021/06/05 03:15:32;;;;;;;7.20;6.57;;;16.20;99.90;;;;;;4972898;28;20451;-63
2021/06/05 03:18:00;;;;;;;9.17;7.03;;;16.00;99.90;;;;;;5010012;28;20492;-63
2021/06/05 03:20:35;;;;;;;7.00;6.50;;;16.10;99.90;;;;;;4965675;28;20458;-64
2021/06/05 03:23:03;;;;;;;8.00;7.20;;;15.90;99.90;;;;;;4978709;28;20454;-64
2021/06/05 03:25:30;;;;;;;7.67;6.97;;;15.70;99.90;;;;;;4978846;28;20458;-64
2021/06/05 03:27:58;;;;;;;7.73;6.87;;;15.60;99.90;;;;;;4980011;28;20443;-63
2021/06/05 03:30:28;;;;;;;6.70;6.10;;;15.60;99.90;;;;;;4975673;28;20466;-64
2021/06/05 03:32:55;;;;;;;8.73;7.82;;;15.60;99.90;;;;;;4976087;28;20498;-64
2021/06/05 03:35:23;;;;;;;8.30;7.43;;;15.70;99.90;;;;;;4971677;28;20214;-63
2021/06/05 03:37:50;;;;;;;7.60;6.80;;;15.70;99.90;;;;;;4979977;28;20463;-63
2021/06/05 03:40:22;;;;;;;6.77;6.10;;;15.80;99.90;;;;;;4976487;28;20453;-63
2021/06/05 03:42:49;;;;;;;7.07;6.37;;;16.10;99.90;;;;;;4976113;28;20485;-63
2021/06/05 03:45:17;;;;;;;7.13;5.97;;;16.30;99.90;;;;;;4971140;28;20482;-64
2021/06/05 03:47:46;;;;;;;7.50;6.80;;;16.40;99.90;;;;;;4974140;28;20429;-63
2021/06/05 03:50:16;;;;;;;10.30;6.27;;;16.70;99.90;;;;;;4971426;28;20511;-62
2021/06/05 03:52:44;;;;;;;7.20;6.47;;;17.20;99.90;;;;;;4975507;28;20426;-62
2021/06/05 03:55:12;;;;;;;7.97;7.30;;;17.60;99.90;;;;;;4976159;28;20434;-62
2021/06/05 03:57:39;;;;;;;6.73;6.20;;;17.90;99.90;;;;;;4965246;28;20449;-62
2021/06/05 04:00:16;;;;;;;8.10;7.10;;;17.80;99.90;;;;;;4976568;28;20466;-62
2021/06/05 04:02:43;;;;;;;7.10;6.43;;;17.60;99.90;;;;;;4975117;28;20419;-62
2021/06/05 04:05:12;;;;;;;8.00;7.20;;;17.30;99.90;;;;;;4977747;28;20439;-62
2021/06/05 04:07:39;;;;;;;7.53;6.83;;;17.30;99.90;;;;;;4964685;28;20508;-62
2021/06/05 04:10:08;;;;;;;8.00;7.30;;;17.20;99.90;;;;;;4971804;28;20537;-62
2021/06/05 04:12:35;;;;;;;7.60;6.90;;;17.00;99.90;;;;;;4972585;28;20439;-62
2021/06/05 04:15:05;;;;;;;8.03;6.17;;;17.00;99.90;;;;;;4975132;28;20510;-61
2021/06/05 04:17:33;;;;;;;8.03;6.93;;;16.90;99.90;;;;;;4978153;28;20472;-61
2021/06/05 04:20:01;;;;;;;6.60;5.90;;;16.90;99.90;;;;;;4973297;28;20624;-62
2021/06/05 04:22:28;;;;;;;8.13;6.67;;;16.90;99.90;;;;;;4962682;28;20489;-62
2021/06/05 04:24:55;;;;;;;7.43;6.73;;;17.00;99.90;;;;;;4971546;28;20456;-62
2021/06/05 04:27:22;;;;;;;7.27;6.53;;;17.30;99.90;;;;;;4970926;28;20425;-62
2021/06/05 04:29:49;;;;;;;6.90;6.30;;;17.50;99.90;;;;;;4975520;28;20494;-61
2021/06/05 04:32:16;;;;;;;6.70;6.10;;;17.70;99.90;;;;;;4970392;28;20479;-61
2021/06/05 04:34:43;;;;;;;6.50;5.90;;;17.70;99.90;;;;;;4972249;28;20488;-61
2021/06/05 04:37:10;;;;;;;6.67;6.07;;;18.00;99.90;;;;;;4969526;28;20450;-62
2021/06/05 04:39:37;;;;;;;6.77;6.10;;;18.20;99.90;;;;;;4979073;28;20427;-62
2021/06/05 04:42:05;;;;;;;5.77;5.17;;;18.30;99.90;;;;;;4977096;28;20717;-62
2021/06/05 04:44:32;;;;;;;7.27;6.60;;;18.40;99.90;;;;;;4978075;28;20866;-61
2021/06/05 04:46:59;;;;;;;6.90;5.90;;;18.30;99.90;;;;;;4976241;28;20415;-61
2021/06/05 04:49:27;;;;;;;7.60;6.90;;;18.20;99.90;;;;;;4970272;28;20427;-62
2021/06/05 04:51:54;;;;;;;6.10;5.67;;;18.30;99.90;;;;;;4959986;28;20416;-61
2021/06/05 04:54:21;;;;;;;6.80;6.20;;;18.30;99.90;;;;;;4964647;28;20454;-61
2021/06/05 04:56:50;;;;;;;6.90;6.30;;;18.40;99.90;;;;;;4978496;28;20411;-62
2021/06/05 04:59:21;;;;;;;9.43;5.93;;;18.60;99.90;;;;;;4977610;28;20484;-63
2021/06/05 05:01:49;;;;;;;6.73;6.20;;;18.60;99.90;;;;;;4978333;28;20998;-63
2021/06/05 05:04:16;;;;;;;6.90;6.00;;;18.60;99.90;;;;;;4975408;28;20755;-62
2021/06/05 05:06:44;;;;;;;5.77;5.23;;;18.80;99.90;;;;;;4968608;28;20454;-63
2021/06/05 05:09:13;;;;;;;6.33;5.53;;;18.80;99.90;;;;;;4979854;28;20663;-61
2021/06/05 05:11:41;;;;;;;6.00;5.40;;;18.70;99.90;;;;;;4982093;28;20761;-62
2021/06/05 05:14:10;;;;;;;6.97;6.27;;;18.70;99.90;;;;;;4978744;28;20429;-63
2021/06/05 05:16:38;;;;;;;6.60;6.00;;;18.90;99.90;;;;;;4981915;28;20447;-61
2021/06/05 05:19:05;;;;;;;6.63;5.87;;;19.10;99.90;;;;;;4982098;28;20426;-63
2021/06/05 05:21:33;;;;;;;6.20;5.60;;;19.20;99.90;;;;;;4967995;28;20430;-62
2021/06/05 05:24:01;;;;;;;5.40;5.00;;;19.30;99.90;;;;;;4981217;28;20741;-63
2021/06/05 05:26:28;;;;;;;5.73;5.33;;;19.20;99.90;;;;;;4974379;28;20502;-62
2021/06/05 05:28:56;;;;;;;5.67;5.27;;;19.30;99.90;;;;;;4972286;28;20505;-63
2021/06/05 05:31:27;;;;;;;6.00;5.50;;;19.30;99.90;;;;;;4972547;28;20471;-61
2021/06/05 05:33:54;;;;;;;6.10;5.37;;;19.40;99.90;;;;;;4976660;28;20448;-62
2021/06/05 05:36:25;;;;;;;7.27;6.70;;;19.70;99.90;;;;;;4981306;28;21364;-62
2021/06/05 05:38:53;;;;;;;5.90;5.47;;;20.00;99.90;;;;;;4977962;28;21012;-62
2021/06/05 05:41:22;;;;;;;7.97;7.20;;;20.50;99.90;;;;;;4981640;28;20431;-62
2021/06/05 05:43:51;;;;;;;6.33;5.80;;;21.00;99.90;;;;;;4979149;28;20553;-61
2021/06/05 05:46:18;;;;;;;6.27;5.77;;;21.00;99.90;;;;;;4981516;28;20453;-62
2021/06/05 05:48:47;;;;;;;6.80;6.00;;;20.80;99.90;;;;;;4980659;28;20443;-61
2021/06/05 05:51:16;;;;;;;6.50;6.00;;;20.60;99.90;;;;;;4966214;28;20459;-60
2021/06/05 05:53:44;;;;;;;6.17;5.67;;;20.70;99.90;;;;;;4968719;28;20735;-62
2021/06/05 05:56:13;;;;;;;7.07;6.23;;;20.80;99.90;;;;;;4980456;28;20615;-61
2021/06/05 05:58:43;;;;;;;6.70;6.00;;;20.90;99.90;;;;;;4970584;28;20499;-62
2021/06/05 06:01:12;;;;;;;6.87;5.60;;;20.80;99.90;;;;;;4975626;28;20497;-61
2021/06/05 06:03:42;;;;;;;6.87;6.27;;;21.00;99.90;;;;;;4974212;28;20790;-61
2021/06/05 06:06:10;;;;;;;6.13;5.63;;;21.20;99.90;;;;;;4974219;28;20540;-61
2021/06/05 06:08:38;;;;;;;7.13;6.43;;;21.20;99.90;;;;;;4974507;28;20436;-61
2021/06/05 06:11:06;;;;;;;6.37;5.87;;;21.30;99.80;;;;;;4978869;28;20464;-61
2021/06/05 06:13:33;;;;;;;5.83;5.33;;;21.50;98.90;;;;;;4978787;28;21137;-61
2021/06/05 06:16:00;;;;;;;6.40;5.83;;;21.80;98.80;;;;;;4978830;28;20489;-62
2021/06/05 06:18:27;;;;;;;7.07;6.47;;;22.40;98.30;;;;;;4972631;28;20456;-62
2021/06/05 06:20:56;;;;;;;5.87;5.40;;;22.50;97.70;;;;;;4980632;28;20542;-62
2021/06/05 06:23:27;;;;;;;7.60;6.60;;;22.70;97.50;;;;;;4975341;28;20422;-62
2021/06/05 06:25:56;;;;;;;7.00;6.43;;;22.70;96.50;;;;;;4974475;28;20519;-62
2021/06/05 06:28:30;;;;;;;6.47;5.97;;;22.60;97.00;;;;;;4974668;28;20657;-62
2021/06/05 06:30:59;;;;;;;7.10;6.40;;;22.70;96.70;;;;;;4967212;28;20510;-62
2021/06/05 06:33:26;;;;;;;7.23;5.90;;;23.40;95.90;;;;;;4979031;28;20466;-61
2021/06/05 06:35:54;;;;;;;8.53;7.73;;;24.10;94.70;;;;;;4974771;28;20445;-64
2021/06/05 06:38:33;;;;;;;7.60;6.97;;;23.70;94.30;;;;;;4979284;28;20527;-61
2021/06/05 06:41:01;;;;;;;7.87;7.20;;;23.20;95.30;;;;;;4971892;28;20813;-61
2021/06/05 06:43:30;;;;;;;7.77;7.17;;;23.10;95.80;;;;;;4964029;28;20837;-61
2021/06/05 06:46:01;;;;;;;6.87;6.30;;;23.60;95.00;;;;;;4967429;28;20440;-62
2021/06/05 06:48:28;;;;;;;8.33;7.63;;;25.00;92.40;;;;;;4979693;28;20766;-61
2021/06/05 06:50:56;;;;;;;7.87;7.30;;;25.20;90.70;;;;;;4978295;28;21071;-61
2021/06/05 06:53:23;;;;;;;8.90;8.30;;;26.40;88.20;;;;;;4980025;28;20602;-61
2021/06/05 06:55:51;;;;;;;10.80;10.10;;;27.80;83.70;;;;;;4962229;28;20420;-61
2021/06/05 06:58:19;;;;;;;10.40;9.60;;;29.80;77.40;;;;;;4970797;28;20452;-62
2021/06/05 07:00:48;;;;;;;10.40;9.80;;;31.10;71.30;;;;;;4979593;28;20452;-62
2021/06/05 07:03:16;;;;;;;10.70;10.10;;;31.10;69.60;;;;;;4976813;28;20445;-61
2021/06/05 07:05:43;;;;;;;10.07;9.37;;;31.20;69.40;;;;;;4978892;28;20456;-61
2021/06/05 07:08:21;;;;;;;9.30;8.73;;;31.90;65.70;;;;;;4977866;28;20445;-62
2021/06/05 07:10:54;;;;;;;9.80;9.00;;;31.20;65.30;;;;;;4976285;28;20489;-62
2021/06/05 07:13:22;;;;;;;9.97;9.27;;;30.20;66.90;;;;;;5004818;28;20824;-62
2021/06/05 07:15:51;;;;;;;10.10;9.40;;;29.20;69.80;;;;;;4972383;28;20445;-61
2021/06/05 07:18:19;;;;;;;9.93;9.33;;;28.20;72.70;;;;;;4971177;28;20452;-62
2021/06/05 07:20:48;;;;;;;10.50;9.90;;;26.90;75.30;;;;;;4973219;28;20451;-61
2021/06/05 07:23:18;;;;;;;10.40;9.67;;;26.90;76.90;;;;;;4967206;28;20451;-60
2021/06/05 07:25:45;;;;;;;9.77;9.17;;;26.40;76.70;;;;;;4979304;28;20512;-62
2021/06/05 07:28:17;;;;;;;10.73;9.93;;;25.80;80.00;;;;;;4975429;28;20445;-62
2021/06/05 07:30:46;;;;;;;8.90;8.37;;;25.50;81.70;;;;;;4974938;28;20562;-61
2021/06/05 07:33:14;;;;;;;9.57;8.87;;;25.10;85.60;;;;;;4970537;28;20799;-61
2021/06/05 07:35:42;;;;;;;9.57;8.93;;;25.10;85.50;;;;;;4977498;28;20639;-62
2021/06/05 07:38:11;;;;;;;8.87;8.27;;;25.80;83.40;;;;;;4972667;28;20699;-62
2021/06/05 07:40:39;;;;;;;9.37;8.77;;;27.30;79.40;;;;;;4975210;28;20433;-62
2021/06/05 07:43:06;;;;;;;9.83;9.13;;;27.30;78.00;;;;;;4971599;28;20477;-61
2021/06/05 07:45:33;;;;;;;11.47;10.60;;;27.30;77.40;;;;;;4973091;28;20462;-61
2021/06/05 07:48:01;;;;;;;9.40;8.60;;;26.50;78.00;;;;;;4970448;28;20489;-61
2021/06/05 07:50:28;;;;;;;10.37;9.37;;;26.00;80.70;;;;;;4972692;28;20511;-62
2021/06/05 07:52:55;;;;;;;11.90;9.00;;;25.40;84.00;;;;;;4977183;28;20598;-62
2021/06/05 07:55:23;;;;;;;10.60;9.70;;;25.30;83.90;;;;;;4968087;28;20445;-60
2021/06/05 07:57:50;;;;;;;10.60;9.70;;;25.40;82.30;;;;;;5006110;28;20775;-60
2021/06/05 08:00:22;;;;;;;9.00;8.50;;;25.40;83.50;;;;;;4975020;28;20432;-62
2021/06/05 08:02:50;;;;;;;9.50;8.80;;;24.90;82.40;;;;;;4976097;28;20439;-62
2021/06/05 08:05:18;;;;;;;10.53;9.43;;;25.70;81.40;;;;;;4978801;28;20448;-61
2021/06/05 08:07:47;;;;;;;12.00;10.67;;;26.00;79.00;;;;;;4975663;28;20445;-62
2021/06/05 08:10:16;;;;;;;11.40;10.50;;;26.60;77.90;;;;;;4975242;28;20495;-61
2021/06/05 08:12:43;;;;;;;10.37;9.47;;;27.70;74.60;;;;;;4975862;28;20471;-61
2021/06/05 08:15:15;;;;;;;9.80;9.20;;;29.00;70.70;;;;;;4972540;28;20447;-61
2021/06/05 08:17:42;;;;;;;11.80;10.87;;;29.60;68.60;;;;;;4975193;28;20468;-62
2021/06/05 08:20:12;;;;;;;11.60;10.80;;;29.90;65.20;;;;;;4975390;28;20508;-62
2021/06/05 08:22:39;;;;;;;11.27;10.50;;;30.40;63.20;;;;;;4971461;28;20651;-61
2021/06/05 08:25:08;;;;;;;12.27;11.47;;;31.20;60.00;;;;;;4975023;28;20449;-61
2021/06/05 08:27:38;;;;;;;12.50;11.70;;;31.40;59.20;;;;;;4973169;28;20480;-61
2021/06/05 08:30:10;;;;;;;10.20;9.60;;;31.40;60.20;;;;;;4976504;28;20454;-61
2021/06/05 08:32:37;;;;;;;13.00;11.80;;;31.60;59.40;;;;;;4971600;28;20805;-60
2021/06/05 08:35:04;;;;;;;11.70;10.50;;;31.60;58.20;;;;;;4971686;28;20492;-61
2021/06/05 08:37:31;;;;;;;11.53;10.87;;;31.50;59.90;;;;;;4976571;28;20477;-61
2021/06/05 08:39:58;;;;;;;10.50;9.80;;;31.30;60.20;;;;;;4974320;28;20513;-61
2021/06/05 08:42:36;;;;;;;11.50;10.70;;;30.80;60.60;;;;;;4968889;28;20476;-61
2021/06/05 08:45:06;;;;;;;10.37;9.67;;;30.10;60.60;;;;;;4970409;28;20437;-63
2021/06/05 08:47:36;;;;;;;10.80;10.10;;;29.60;62.10;;;;;;4974408;28;20688;-62
2021/06/05 08:50:10;;;;;;;9.87;9.27;;;29.60;62.60;;;;;;4975130;28;20484;-62
2021/06/05 08:52:51;;;;;;;10.57;9.77;;;28.60;64.70;;;;;;4974704;28;20535;-60
2021/06/05 08:55:31;;;;;;;10.97;10.20;;;29.90;61.90;;;;;;4975963;28;20470;-61
2021/06/05 08:58:00;;;;;;;10.37;9.77;;;31.70;58.40;;;;;;4970099;28;20525;-62
2021/06/05 09:00:35;;;;;;;10.50;9.70;;;33.90;53.00;;;;;;4972154;28;20453;-65
2021/06/05 09:03:12;;;;;;;10.90;10.23;;;33.90;51.90;;;;;;4966988;28;20440;-61
2021/06/05 09:05:48;;;;;;;10.80;10.10;;;33.60;52.20;;;;;;4960437;28;20475;-63
2021/06/05 09:08:19;;;;;;;10.90;10.30;;;33.70;51.40;;;;;;4977493;28;20433;-61
2021/06/05 09:10:59;;;;;;;10.27;9.67;;;33.20;53.40;;;;;;4968615;28;20698;-61
2021/06/05 09:13:26;;;;;;;9.00;8.60;;;32.70;52.00;;;;;;4969771;28;20495;-61
2021/06/05 09:16:22;;;;;;;10.57;9.87;;;33.90;49.90;;;;;;4976236;28;20522;-62
2021/06/05 09:18:51;;;;;;;10.20;9.70;;;35.80;47.00;;;;;;4967185;28;20460;-62
2021/06/05 09:21:38;;;;;;;11.00;10.37;;;36.10;47.60;;;;;;4965830;28;20496;-60
2021/06/05 09:24:27;;;;;;;11.43;10.73;;;35.70;47.50;;;;;;4972584;28;20487;-62
2021/06/05 09:27:03;;;;;;;11.50;10.70;;;35.50;47.70;;;;;;4973200;28;20715;-61
2021/06/05 09:29:32;;;;;;;10.73;10.03;;;34.90;49.20;;;;;;4973017;28;20810;-63
2021/06/05 09:32:06;;;;;;;10.57;9.97;;;34.60;49.90;;;;;;4973762;28;20487;-61
2021/06/05 09:34:37;;;;;;;9.90;9.30;;;31.80;55.30;;;;;;4973744;28;20497;-62
2021/06/05 09:37:07;;;;;;;10.80;10.20;;;29.10;61.70;;;;;;4966241;28;20469;-62
2021/06/05 09:39:57;;;;;;;9.60;8.90;;;27.90;66.30;;;;;;4974131;28;20449;-62
2021/06/05 09:42:31;;;;;;;9.10;8.60;;;26.60;65.90;;;;;;4973546;28;20847;-62
2021/06/05 09:45:00;;;;;;;9.20;8.70;;;26.40;69.10;;;;;;4972959;28;20451;-62
2021/06/05 09:47:31;;;;;;;9.03;8.43;;;26.00;70.00;;;;;;4971537;28;20457;-62
2021/06/05 09:50:26;;;;;;;9.03;8.43;;;26.00;70.30;;;;;;4976641;28;20505;-62
2021/06/05 09:52:54;;;;;;;10.23;9.43;;;26.10;71.00;;;;;;4966792;28;20497;-61
2021/06/05 09:55:21;;;;;;;9.33;8.73;;;25.90;72.20;;;;;;4970594;28;20480;-62
2021/06/05 09:57:49;;;;;;;10.37;9.70;;;25.70;74.30;;;;;;4979837;28;20698;-60
2021/06/05 10:00:37;;;;;;;9.80;9.17;;;25.70;74.60;;;;;;4978447;28;20450;-62
2021/06/05 10:03:30;;;;;;;9.30;8.60;;;26.00;70.60;;;;;;4980025;28;20523;-61
2021/06/05 10:05:57;;;;;;;8.67;8.17;;;26.40;71.40;;;;;;4977406;28;20412;-61
2021/06/05 10:08:40;;;;;;;9.10;8.50;;;26.00;70.50;;;;;;4969563;28;20445;-61
2021/06/05 10:11:26;;;;;;;9.03;8.47;;;25.40;73.40;;;;;;4966745;28;20456;-63
2021/06/05 10:14:08;;;;;;;9.77;9.17;;;25.20;75.80;;;;;;4977502;28;20447;-62
2021/06/05 10:16:38;;;;;;;9.87;9.17;;;25.10;76.20;;;;;;4979182;28;20473;-62
2021/06/05 10:19:09;;;;;;;8.70;8.30;;;25.20;73.60;;;;;;4976830;28;20452;-61
2021/06/05 10:21:40;;;;;;;8.70;8.30;;;25.10;75.00;;;;;;4975650;28;20448;-61
2021/06/05 10:24:27;;;;;;;8.50;8.00;;;24.90;75.00;;;;;;4978413;28;20421;-62
2021/06/05 10:26:56;;;;;;;9.00;8.40;;;25.00;75.60;;;;;;4969224;28;20762;-61
2021/06/05 10:29:32;;;;;;;8.80;8.20;;;25.20;75.10;;;;;;4971954;28;20446;-61
2021/06/05 10:32:07;;;;;;;8.20;7.70;;;24.80;69.60;;;;;;4974994;28;20870;-62
2021/06/05 10:34:41;;;;;;;7.63;7.23;;;24.80;68.50;;;;;;4974348;28;20435;-61
2021/06/05 10:37:16;;;;;;;7.60;7.10;;;25.20;68.90;;;;;;4969465;28;20484;-62
2021/06/05 10:39:45;;;;;;;7.77;7.37;;;25.20;68.80;;;;;;4976268;28;20781;-61
2021/06/05 10:42:32;;;;;;;8.53;8.13;;;25.40;69.40;;;;;;4973038;28;20635;-62
2021/06/05 10:45:02;;;;;;;7.17;6.87;;;25.70;70.70;;;;;;4977234;28;20406;-60
2021/06/05 10:47:48;;;;;;;8.23;7.73;;;25.80;70.00;;;;;;4972096;28;20753;-62
2021/06/05 10:50:23;;;;;;;8.47;7.40;;;25.70;70.80;;;;;;4974908;28;20749;-62
2021/06/05 10:53:11;;;;;;;7.77;7.07;;;25.80;68.30;;;;;;4970669;28;20479;-63
2021/06/05 10:55:45;;;;;;;7.83;7.43;;;25.90;66.50;;;;;;4975940;28;20483;-63
2021/06/05 10:58:24;;;;;;;7.70;7.30;;;25.80;67.40;;;;;;4977685;28;20495;-63
2021/06/05 11:00:58;;;;;;;7.53;7.03;;;25.20;63.90;;;;;;4977222;28;20445;-62
2021/06/05 11:03:25;;;;;;;8.77;8.17;;;25.30;66.70;;;;;;4975851;28;20689;-61
2021/06/05 11:06:18;;;;;;;7.17;6.77;;;25.40;67.90;;;;;;4978465;28;20524;-61
2021/06/05 11:09:31;;;;;;;8.13;7.63;;;25.60;67.10;;;;;;4970279;28;20921;-63
2021/06/05 11:12:23;;;;;;;7.70;7.30;;;25.50;65.80;;;;;;4975535;28;20520;-62
2021/06/05 11:14:52;;;;;;;8.53;8.10;;;25.50;65.50;;;;;;4976538;28;20550;-63
2021/06/05 11:17:26;;;;;;;8.00;7.60;;;25.50;66.30;;;;;;4978159;28;20484;-61
2021/06/05 11:20:04;;;;;;;7.33;6.93;;;25.60;65.40;;;;;;4977093;28;20506;-61
2021/06/05 11:22:53;;;;;;;7.30;7.00;;;25.60;63.50;;;;;;4970899;28;20454;-61
2021/06/05 11:25:20;;;;;;;7.60;7.20;;;25.90;65.40;;;;;;4978022;28;20462;-64
2021/06/05 11:27:52;;;;;;;7.70;7.30;;;25.90;66.10;;;;;;4977294;28;20423;-63
2021/06/05 11:30:21;;;;;;;8.07;7.67;;;26.00;66.70;;;;;;4974641;28;20482;-62
2021/06/05 11:33:10;;;;;;;8.10;7.63;;;26.10;65.10;;;;;;4976916;28;20786;-62
2021/06/05 11:35:49;;;;;;;8.77;8.17;;;26.10;66.80;;;;;;4971709;28;20506;-62
2021/06/05 11:38:19;;;;;;;9.10;8.57;;;26.00;66.90;;;;;;4977808;28;20460;-62
2021/06/05 11:40:51;;;;;;;8.00;7.60;;;26.20;67.70;;;;;;4975337;28;20523;-62
2021/06/05 11:43:27;;;;;;;8.50;8.10;;;26.70;66.30;;;;;;4967089;28;20704;-62
2021/06/05 11:46:14;;;;;;;7.57;7.17;;;27.10;66.30;;;;;;4975346;28;20630;-62
2021/06/05 11:48:44;;;;;;;7.87;7.47;;;27.00;65.20;;;;;;4978103;28;20609;-61
2021/06/05 11:51:19;;;;;;;8.10;7.70;;;26.50;66.70;;;;;;4969356;28;20423;-61
2021/06/05 11:54:13;;;;;;;8.07;7.67;;;25.90;68.00;;;;;;4978374;28;20423;-62
2021/06/05 11:56:51;;;;;;;8.13;7.73;;;25.70;67.10;;;;;;4962447;28;20744;-62
2021/06/05 11:59:38;;;;;;;7.57;7.03;;;26.00;66.10;;;;;;4973019;28;20444;-62
2021/06/05 12:02:27;;;;;;;8.23;7.73;;;26.70;65.20;;;;;;4974954;28;20600;-63
2021/06/05 12:05:00;;;;;;;8.10;7.40;;;27.60;63.20;;;;;;4970199;28;20679;-62
2021/06/05 12:07:41;;;;;;;9.40;8.80;;;27.40;63.00;;;;;;4975635;28;20458;-61
2021/06/05 12:10:14;;;;;;;9.00;8.50;;;27.30;64.20;;;;;;4977648;28;20439;-63
2021/06/05 12:12:49;;;;;;;9.50;9.00;;;27.20;66.60;;;;;;4974270;28;20491;-63
2021/06/05 12:15:20;;;;;;;9.10;8.60;;;26.90;67.80;;;;;;4969673;28;20485;-62
2021/06/05 12:18:08;;;;;;;8.50;8.07;;;26.60;68.90;;;;;;4974888;28;20436;-63
2021/06/05 12:20:59;;;;;;;8.50;7.93;;;26.10;69.90;;;;;;4975477;28;20442;-61
2021/06/05 12:23:39;;;;;;;8.57;8.07;;;25.90;71.90;;;;;;4973475;28;20445;-61
2021/06/05 12:26:32;;;;;;;8.50;8.00;;;26.10;69.50;;;;;;4976978;28;20452;-62
2021/06/05 12:29:13;;;;;;;8.83;8.10;;;26.30;68.90;;;;;;4969517;28;20643;-62
2021/06/05 12:31:42;;;;;;;8.83;8.30;;;26.70;68.20;;;;;;4983338;28;20488;-63
2021/06/05 12:34:33;;;;;;;8.80;8.20;;;27.20;65.50;;;;;;4968082;28;20446;-64
2021/06/05 12:37:14;;;;;;;8.00;7.60;;;27.00;64.50;;;;;;4969772;28;20533;-62
2021/06/05 12:40:15;;;;;;;8.30;7.80;;;26.80;64.50;;;;;;4973217;28;20441;-64
2021/06/05 12:42:45;;;;;;;9.80;7.83;;;26.80;63.90;;;;;;4967503;28;20524;-62
2021/06/05 12:45:21;;;;;;;7.83;7.13;;;26.70;65.30;;;;;;4974049;28;20458;-62
2021/06/05 12:47:53;;;;;;;8.00;7.50;;;26.70;65.40;;;;;;4964945;28;20823;-62
2021/06/05 12:50:25;;;;;;;9.77;8.77;;;26.40;66.80;;;;;;4961887;28;20446;-62
2021/06/05 12:52:53;;;;;;;7.80;7.40;;;26.40;65.90;;;;;;4959343;28;20492;-63
2021/06/05 12:55:31;;;;;;;7.40;6.90;;;26.80;65.70;;;;;;4973038;28;20447;-65
2021/06/05 12:58:08;;;;;;;7.50;6.90;;;27.20;63.50;;;;;;4974703;28;20432;-63
2021/06/05 13:00:40;;;;;;;8.63;7.93;;;27.30;63.20;;;;;;4976071;28;20467;-62
2021/06/05 13:03:10;;;;;;;7.27;6.87;;;27.00;63.70;;;;;;4976511;28;20447;-62
2021/06/05 13:05:40;;;;;;;7.87;7.47;;;26.50;64.80;;;;;;4972894;28;20434;-62
2021/06/05 13:08:26;;;;;;;7.93;7.40;;;26.10;66.60;;;;;;4977000;28;20542;-62
2021/06/05 13:10:55;;;;;;;6.90;6.60;;;26.00;67.60;;;;;;4973336;28;20422;-62